Glenville, WV (26351)

11:01 AM EDT on August 25, 2016 (GMT -0400)
Sand Fork | | Change Station

Elev 869 ft 38.90 °N, 80.73 °W | Updated 1 minute ago

Overcast
Overcast
79.3 °F
Feels Like 84 °F
N
0.0
Wind Variable Wind from SSE

Today
High -- | Low -- °F
--% Chance of Precip.
Yesterday
High -- | Low -- °F
Precip. -- in
Pressure 30.10 in
Visibility 10.0 miles
Clouds Few 1800 ft
Scattered Clouds 2300 ft
Overcast 3100 ft
Heat Index 84 °F
Dew Point 76 °F
Humidity 91%
Rainfall 0.12 in
Snow Depth Not available.
6:46 AM 8:03 PM
Last Quarter, 45% visible
METAR KCKB 251453Z 20006KT 10SM FEW018 SCT023 OVC031 24/22 A3014 RMK AO2 SLP192 60005 T02440222 57002
Pressure 30.10 in
Visibility 10.0 miles
Clouds Few 1800 ft
Scattered Clouds 2300 ft
Overcast 3100 ft
Heat Index 84 °F
Dew Point 76 °F
Humidity 91%
Rainfall 0.12 in
Snow Depth Not available.
6:46 AM 8:03 PM
Last Quarter, 45% visible
METAR KCKB 251453Z 20006KT 10SM FEW018 SCT023 OVC031 24/22 A3014 RMK AO2 SLP192 60005 T02440222 57002

10-Day Weather Forecast

Almanac

Astronomy

Aug. 25, 2016 Rise Set
Actual Time
Civil Twilight
Nautical Twilight
Astronomical Twilight
Moon
Length of Visible Light
Length of Day
Tomorrow will be .
, % of the Moon is Illuminated

Today's Extremes

State Highs State Lows

Community

WunderPhotos

Upload Photos

1,934,854 photos uploaded!

WunderBlog® & News

Nearby

Air Quality

  Air Quality AQ Index Pollutant
Not available.

Snow Depth

Station Depth Elevation

Earthquake Activity

City Distance Mag. Time & Date
Minimum magnitude displayed is 2.5.

Coastal Water Temperatures

Place Temperature

Stations

Nearby Weather Stations

Station Location Temp. Windchill Dew Point Humidity Wind Precip. Elev Updated Type
                   

Watches & Warnings

There are currently no watches in effect.